createdAt,value
2018-11-10T00:00:44.373Z,99703.44
2018-11-10T00:03:12.903Z,99698.57
2018-11-10T00:05:41.454Z,99696.99
2018-11-10T00:08:09.994Z,99694.36
2018-11-10T00:10:38.572Z,99695.48
2018-11-10T00:13:07.147Z,99695.02
2018-11-10T00:15:35.716Z,99699.88
2018-11-10T00:18:04.376Z,99700.96
2018-11-10T00:20:32.884Z,99695.86
2018-11-10T00:23:01.445Z,99682.96
2018-11-10T00:25:30.024Z,99672.88
2018-11-10T00:27:58.666Z,99653.22
2018-11-10T00:30:27.312Z,99653.91
2018-11-10T00:32:55.876Z,99658.81
2018-11-10T00:35:24.760Z,99657.61
2018-11-10T00:37:53.292Z,99657.41
2018-11-10T00:40:21.944Z,99653.11
2018-11-10T00:42:50.499Z,99646.34
2018-11-10T00:45:19.428Z,99649.52
2018-11-10T00:47:48.227Z,99650.45
2018-11-10T00:50:16.805Z,99652.43
2018-11-10T00:52:45.397Z,99654.28
2018-11-10T00:55:13.919Z,99650.33
2018-11-10T00:57:42.488Z,99650.77
2018-11-10T01:00:12.565Z,99649.25
2018-11-10T01:02:42.139Z,99650.79
2018-11-10T01:05:10.877Z,99645.02
2018-11-10T01:07:39.976Z,99635.69
2018-11-10T01:10:10.303Z,99642.61
2018-11-10T01:12:38.892Z,99638.84
2018-11-10T01:15:09.409Z,99643.75
2018-11-10T01:17:37.956Z,99639.81
2018-11-10T01:20:07.629Z,99627.45
2018-11-10T01:22:36.212Z,99632.35
2018-11-10T01:25:05.382Z,99621.67
2018-11-10T01:27:33.936Z,99626.13
2018-11-10T01:30:02.585Z,99617.70
2018-11-10T01:32:31.292Z,99617.67
2018-11-10T01:34:59.827Z,99629.63
2018-11-10T01:37:28.470Z,99623.62
2018-11-10T01:39:57.008Z,99614.66
2018-11-10T01:42:25.616Z,99614.77
2018-11-10T01:44:54.217Z,99614.56
2018-11-10T01:47:22.755Z,99613.02
2018-11-10T01:49:51.413Z,99618.14
2018-11-10T01:52:19.954Z,99616.73
2018-11-10T01:54:48.692Z,99608.59
2018-11-10T01:57:17.244Z,99598.56
2018-11-10T01:59:45.859Z,99594.06
2018-11-10T02:02:14.501Z,99591.92
2018-11-10T02:04:43.024Z,99597.75
2018-11-10T02:07:11.560Z,99592.58
2018-11-10T02:09:40.199Z,99583.69
2018-11-10T02:12:08.747Z,99582.37
2018-11-10T02:14:37.384Z,99585.48
2018-11-10T02:17:06.123Z,99578.31
2018-11-10T02:19:34.819Z,99579.23
2018-11-10T02:22:03.465Z,99573.70
2018-11-10T02:24:32.156Z,99578.81
2018-11-10T02:27:00.776Z,99570.39
2018-11-10T02:29:29.380Z,99569.32
2018-11-10T02:31:57.887Z,99563.55
2018-11-10T02:34:26.505Z,99555.65
2018-11-10T02:36:55.056Z,99564.47
2018-11-10T02:39:23.598Z,99563.95
2018-11-10T02:41:52.264Z,99571.33
2018-11-10T02:44:20.760Z,99552.94
2018-11-10T02:46:49.342Z,99546.24
2018-11-10T02:49:17.864Z,99546.51
2018-11-10T02:51:46.376Z,99555.57
2018-11-10T02:54:14.924Z,99561.68
2018-11-10T02:56:43.852Z,99559.89
2018-11-10T02:59:12.433Z,99555.17
2018-11-10T03:01:41.017Z,99567.30
2018-11-10T03:04:09.588Z,99566.10
2018-11-10T03:06:38.061Z,99554.66
2018-11-10T03:09:07.899Z,99550.34
2018-11-10T03:11:36.526Z,99548.27
2018-11-10T03:14:05.104Z,99556.05
2018-11-10T03:16:34.020Z,99565.98
2018-11-10T03:19:02.728Z,99556.91
2018-11-10T03:21:31.219Z,99552.99
2018-11-10T03:23:59.732Z,99549.53
2018-11-10T03:26:28.272Z,99555.71
2018-11-10T03:28:56.780Z,99550.22
2018-11-10T03:31:25.448Z,99541.17
2018-11-10T03:33:54.043Z,99543.48
2018-11-10T03:36:22.608Z,99546.60
2018-11-10T03:38:51.104Z,99547.74
2018-11-10T03:41:19.630Z,99529.97
2018-11-10T03:43:48.146Z,99516.23
2018-11-10T03:46:16.808Z,99510.77
2018-11-10T03:48:45.472Z,99511.05
2018-11-10T03:51:13.968Z,99509.38
2018-11-10T03:53:42.696Z,99521.20
2018-11-10T03:56:11.192Z,99527.42
2018-11-10T03:58:39.883Z,99540.83
2018-11-10T04:01:08.516Z,99547.74
2018-11-10T04:03:37.129Z,99554.91
2018-11-10T04:06:05.769Z,99559.47
2018-11-10T04:08:34.239Z,99567.03
2018-11-10T04:11:02.868Z,99574.48
2018-11-10T04:13:31.392Z,99568.91
2018-11-10T04:15:59.919Z,99560.55
2018-11-10T04:18:28.532Z,99561.87
2018-11-10T04:20:57.096Z,99544.28
2018-11-10T04:23:25.715Z,99532.70
2018-11-10T04:25:54.271Z,99517.27
2018-11-10T04:28:22.793Z,99519.92
2018-11-10T04:30:51.408Z,99523.97
2018-11-10T04:33:19.974Z,99515.73
2018-11-10T04:35:48.747Z,99524.49
2018-11-10T04:38:17.253Z,99516.72
2018-11-10T04:40:45.856Z,99513.87
2018-11-10T04:43:14.428Z,99509.03
2018-11-10T04:45:42.940Z,99506.38
2018-11-10T04:48:11.598Z,99504.38
2018-11-10T04:50:40.126Z,99485.83
2018-11-10T04:53:08.647Z,99486.77
2018-11-10T04:55:37.248Z,99483.13
2018-11-10T04:58:06.018Z,99481.88
2018-11-10T05:00:34.788Z,99491.84
2018-11-10T05:03:03.364Z,99492.95
2018-11-10T05:05:31.832Z,99498.59
2018-11-10T05:08:00.596Z,99509.14
2018-11-10T05:10:29.247Z,99495.42
2018-11-10T05:12:57.976Z,99526.55
2018-11-10T05:15:26.492Z,99511.57
2018-11-10T05:17:55.032Z,99510.61
2018-11-10T05:20:23.695Z,99515.31
2018-11-10T05:22:52.171Z,99499.38
2018-11-10T05:25:20.795Z,99495.92
2018-11-10T05:27:49.368Z,99483.39
2018-11-10T05:30:17.903Z,99488.30
2018-11-10T05:32:46.556Z,99474.81
2018-11-10T05:35:15.092Z,99471.52
2018-11-10T05:37:43.757Z,99508.95
2018-11-10T05:40:12.717Z,99488.91
2018-11-10T05:42:41.752Z,99480.81
2018-11-10T05:45:10.887Z,99477.23
2018-11-10T05:47:39.592Z,99481.14
2018-11-10T05:50:08.959Z,99481.78
2018-11-10T05:52:37.516Z,99478.47
2018-11-10T05:55:07.276Z,99476.95
2018-11-10T05:57:35.944Z,99481.80
2018-11-10T06:00:06.248Z,99470.51
2018-11-10T06:02:34.890Z,99475.63
2018-11-10T06:05:03.635Z,99486.98
2018-11-10T06:07:32.636Z,99475.70
2018-11-10T06:10:01.302Z,99484.86
2018-11-10T06:12:29.900Z,99495.54
2018-11-10T06:14:58.444Z,99485.08
2018-11-10T06:17:26.961Z,99499.34
2018-11-10T06:19:55.820Z,99485.20
2018-11-10T06:22:24.336Z,99480.30
2018-11-10T06:24:52.877Z,99489.30
2018-11-10T06:27:21.522Z,99493.34
2018-11-10T06:29:50.118Z,99490.04
2018-11-10T06:32:18.788Z,99480.88
2018-11-10T06:34:47.310Z,99494.20
2018-11-10T06:37:15.940Z,99488.95
2018-11-10T06:39:44.563Z,99498.25
2018-11-10T06:42:13.067Z,99498.12
2018-11-10T06:44:41.798Z,99495.28
2018-11-10T06:47:10.367Z,99492.11
2018-11-10T06:49:38.904Z,99492.34
2018-11-10T06:52:07.519Z,99500.71
2018-11-10T06:54:36.012Z,99498.64
2018-11-10T06:57:04.961Z,99509.41
2018-11-10T06:59:33.581Z,99500.42
2018-11-10T07:02:02.180Z,99509.56
2018-11-10T07:04:31.275Z,99511.78
2018-11-10T07:06:59.832Z,99508.22
2018-11-10T07:09:28.532Z,99505.65
2018-11-10T07:11:57.101Z,99517.34
2018-11-10T07:14:25.596Z,99510.31
2018-11-10T07:16:54.225Z,99505.41
2018-11-10T07:19:22.900Z,99500.52
2018-11-10T07:21:51.547Z,99500.00
2018-11-10T07:24:20.136Z,99501.06
2018-11-10T07:26:48.669Z,99498.99
2018-11-10T07:29:17.260Z,99500.20
2018-11-10T07:31:45.918Z,99502.97
2018-11-10T07:34:14.480Z,99510.78
2018-11-10T07:36:43.348Z,99508.53
2018-11-10T07:39:12.636Z,99510.78
2018-11-10T07:41:41.497Z,99513.08
2018-11-10T07:44:10.108Z,99508.53
2018-11-10T07:46:38.632Z,99528.22
2018-11-10T07:49:07.250Z,99524.30
2018-11-10T07:51:35.853Z,99520.00
2018-11-10T07:54:04.560Z,99512.05
2018-11-10T07:56:33.311Z,99524.18
2018-11-10T07:59:01.864Z,99520.68
2018-11-10T08:01:30.744Z,99521.47
2018-11-10T08:03:59.436Z,99523.20
2018-11-10T08:06:28.120Z,99518.98
2018-11-10T08:08:57.814Z,99522.45
2018-11-10T08:11:26.464Z,99516.02
2018-11-10T08:13:55.544Z,99513.69
2018-11-10T08:16:24.460Z,99515.41
2018-11-10T08:18:53.101Z,99516.05
2018-11-10T08:21:21.629Z,99515.44
2018-11-10T08:23:50.213Z,99509.61
2018-11-10T08:26:18.849Z,99504.64
2018-11-10T08:28:47.408Z,99512.78
2018-11-10T08:31:16.122Z,99512.14
2018-11-10T08:33:44.653Z,99510.63
2018-11-10T08:36:13.161Z,99509.44
2018-11-10T08:38:41.939Z,99506.32
2018-11-10T08:41:10.444Z,99514.01
2018-11-10T08:43:39.209Z,99509.50
2018-11-10T08:46:07.883Z,99513.08
2018-11-10T08:48:36.409Z,99517.93
2018-11-10T08:51:05.379Z,99509.56
2018-11-10T08:53:34.076Z,99513.36
2018-11-10T08:56:02.629Z,99503.80
2018-11-10T08:58:31.284Z,99506.07
2018-11-10T09:00:59.892Z,99502.81
2018-11-10T09:03:28.518Z,99509.69
2018-11-10T09:05:57.049Z,99507.45
2018-11-10T09:08:25.650Z,99503.34
2018-11-10T09:10:54.220Z,99501.39
2018-11-10T09:13:23.041Z,99500.81
2018-11-10T09:15:51.620Z,99507.20
2018-11-10T09:18:20.378Z,99505.71
2018-11-10T09:20:48.920Z,99504.03
2018-11-10T09:23:17.441Z,99503.80
2018-11-10T09:25:46.136Z,99495.67
2018-11-10T09:28:14.843Z,99504.07
2018-11-10T09:30:43.586Z,99501.30
2018-11-10T09:33:12.080Z,99504.38
2018-11-10T09:35:40.662Z,99511.42
2018-11-10T09:38:09.385Z,99494.15
2018-11-10T09:40:37.908Z,99490.27
2018-11-10T09:43:06.548Z,99490.13
2018-11-10T09:45:35.084Z,99494.11
2018-11-10T09:48:03.633Z,99491.74
2018-11-10T09:50:32.201Z,99498.94
2018-11-10T09:53:00.825Z,99500.45
2018-11-10T09:55:29.467Z,99497.48
2018-11-10T09:57:58.063Z,99497.55
2018-11-10T10:00:26.713Z,99496.92
2018-11-10T10:02:55.299Z,99495.06
2018-11-10T10:05:23.896Z,99492.52
2018-11-10T10:07:52.463Z,99486.91
2018-11-10T10:10:21.414Z,99482.98
2018-11-10T10:12:49.956Z,99484.16
2018-11-10T10:15:19.299Z,99480.09
2018-11-10T10:17:48.220Z,99474.86
2018-11-10T10:20:18.092Z,99464.12
2018-11-10T10:22:47.698Z,99467.64
2018-11-10T10:25:16.861Z,99474.44
2018-11-10T10:27:46.399Z,99481.53
2018-11-10T10:30:17.253Z,99475.47
2018-11-10T10:32:47.192Z,99473.70
2018-11-10T10:35:16.297Z,99470.34
2018-11-10T10:37:45.715Z,99468.17
2018-11-10T10:40:15.140Z,99475.08
2018-11-10T10:42:44.309Z,99466.66
2018-11-10T10:45:14.459Z,99463.62
2018-11-10T10:47:43.352Z,99456.96
2018-11-10T10:50:13.526Z,99462.91
2018-11-10T10:52:42.378Z,99453.73
2018-11-10T10:55:12.756Z,99439.59
2018-11-10T10:57:41.876Z,99451.93
2018-11-10T11:00:17.232Z,99443.46
2018-11-10T11:02:51.273Z,99444.24
2018-11-10T11:06:22.428Z,99440.63
2018-11-10T11:08:51.152Z,99448.47
2018-11-10T11:11:19.909Z,99453.82
2018-11-10T11:13:48.673Z,99435.95
2018-11-10T11:16:17.268Z,99435.53
2018-11-10T11:18:46.003Z,99439.77
2018-11-10T11:21:14.529Z,99429.27
2018-11-10T11:23:43.115Z,99436.97
2018-11-10T11:26:11.627Z,99430.13
2018-11-10T11:28:40.263Z,99426.45
2018-11-10T11:31:08.915Z,99429.95
2018-11-10T11:33:37.414Z,99421.03
2018-11-10T11:36:06.072Z,99428.64
2018-11-10T11:38:34.602Z,99411.86
2018-11-10T11:41:03.150Z,99410.20
2018-11-10T11:43:31.749Z,99399.61
2018-11-10T11:46:00.329Z,99405.03
2018-11-10T11:48:28.909Z,99408.47
2018-11-10T11:50:57.469Z,99393.28
2018-11-10T11:53:25.979Z,99402.81
2018-11-10T11:55:54.564Z,99405.43
2018-11-10T11:58:23.186Z,99397.81
2018-11-10T12:00:51.817Z,99399.06
2018-11-10T12:03:20.376Z,99402.17
2018-11-10T12:05:48.879Z,99390.42
2018-11-10T12:08:17.620Z,99388.95
2018-11-10T12:10:46.174Z,99376.95
2018-11-10T12:13:14.902Z,99380.44
2018-11-10T12:15:43.500Z,99376.59
2018-11-10T12:18:12.166Z,99366.67
2018-11-10T12:20:40.738Z,99363.27
2018-11-10T12:23:09.232Z,99348.02
2018-11-10T12:25:37.828Z,99338.92
2018-11-10T12:28:06.916Z,99332.79
2018-11-10T12:30:35.984Z,99348.88
2018-11-10T12:33:04.523Z,99339.63
2018-11-10T12:35:33.161Z,99331.31
2018-11-10T12:38:01.716Z,99333.94
2018-11-10T12:40:30.240Z,99331.37
2018-11-10T12:42:58.839Z,99317.80
2018-11-10T12:45:27.470Z,99323.81
2018-11-10T12:47:56.053Z,99324.94
2018-11-10T12:50:24.660Z,99340.62
2018-11-10T12:52:53.255Z,99340.45
2018-11-10T12:55:21.882Z,99343.39
2018-11-10T12:57:50.575Z,99339.15
2018-11-10T13:00:19.100Z,99329.63
2018-11-10T13:02:47.740Z,99335.83
2018-11-10T13:05:16.295Z,99331.64
2018-11-10T13:07:46.239Z,99337.45
2018-11-10T13:10:14.740Z,99328.33
2018-11-10T13:12:43.912Z,99336.16
2018-11-10T13:15:12.544Z,99331.98
2018-11-10T13:17:41.237Z,99305.28
2018-11-10T13:20:12.574Z,99320.05
2018-11-10T13:22:41.108Z,99322.19
2018-11-10T13:25:10.916Z,99326.26
2018-11-10T13:27:39.545Z,99325.34
2018-11-10T13:30:10.098Z,99340.52
2018-11-10T13:32:39.011Z,99334.66
2018-11-10T13:35:08.861Z,99338.56
2018-11-10T13:37:38.096Z,99335.13
2018-11-10T13:40:07.589Z,99334.38
2018-11-10T13:42:36.199Z,99342.59
2018-11-10T13:45:05.765Z,99343.16
2018-11-10T13:47:34.365Z,99344.28
2018-11-10T13:50:03.400Z,99340.33
2018-11-10T13:52:32.290Z,99342.95
2018-11-10T13:55:00.524Z,99340.66
2018-11-10T13:57:29.145Z,99344.80
2018-11-10T13:59:57.796Z,99354.73
2018-11-10T14:02:26.657Z,99344.47
2018-11-10T14:04:55.172Z,99345.35
2018-11-10T14:07:23.684Z,99348.50
2018-11-10T14:09:52.291Z,99343.30
2018-11-10T14:12:20.956Z,99348.80
2018-11-10T14:14:49.504Z,99345.80
2018-11-10T14:17:18.080Z,99352.72
2018-11-10T14:19:46.680Z,99352.59
2018-11-10T14:22:15.327Z,99354.50
2018-11-10T14:24:43.878Z,99354.03
2018-11-10T14:27:12.501Z,99355.66
2018-11-10T14:29:41.084Z,99353.50
2018-11-10T14:32:09.568Z,99361.07
2018-11-10T14:34:38.092Z,99361.69
2018-11-10T14:37:06.676Z,99355.56
2018-11-10T14:39:35.213Z,99352.20
2018-11-10T14:42:03.748Z,99351.65
2018-11-10T14:44:32.328Z,99368.91
2018-11-10T14:47:01.204Z,99364.79
2018-11-10T14:49:29.712Z,99371.15
2018-11-10T14:51:58.380Z,99373.27
2018-11-10T14:54:26.952Z,99367.81
2018-11-10T14:56:55.496Z,99368.59
2018-11-10T14:59:24.016Z,99359.63
2018-11-10T15:01:52.614Z,99363.15
2018-11-10T15:04:21.248Z,99355.05
2018-11-10T15:06:49.888Z,99355.94
2018-11-10T15:09:18.400Z,99357.13
2018-11-10T15:11:47.092Z,99350.95
2018-11-10T15:14:15.584Z,99351.02
2018-11-10T15:16:44.347Z,99363.70
2018-11-10T15:19:12.975Z,99358.48
2018-11-10T15:21:41.456Z,99357.95
2018-11-10T15:24:10.002Z,99358.08
2018-11-10T15:26:38.568Z,99360.55
2018-11-10T15:29:07.256Z,99354.64
2018-11-10T15:31:35.753Z,99359.40
2018-11-10T15:34:04.257Z,99357.16
2018-11-10T15:36:32.808Z,99353.78
2018-11-10T15:39:01.332Z,99351.82
2018-11-10T15:41:30.101Z,99345.18
2018-11-10T15:43:58.692Z,99347.63
2018-11-10T15:46:27.300Z,99327.91
2018-11-10T15:48:55.888Z,99346.63
2018-11-10T15:51:24.617Z,99343.84
2018-11-10T15:53:53.240Z,99340.36
2018-11-10T15:56:22.700Z,99341.52
2018-11-10T15:58:51.378Z,99338.59
2018-11-10T16:01:20.112Z,99336.64
2018-11-10T16:03:48.740Z,99336.16
2018-11-10T16:06:17.573Z,99335.60
2018-11-10T16:08:51.901Z,99321.27
2018-11-10T16:11:23.172Z,99320.41
2018-11-10T16:13:56.035Z,99328.42
2018-11-10T16:16:29.606Z,99326.95
2018-11-10T16:18:58.219Z,99319.89
2018-11-10T16:21:26.849Z,99326.76
2018-11-10T16:23:55.470Z,99320.67
2018-11-10T16:26:24.232Z,99314.35
2018-11-10T16:28:53.832Z,99317.65
2018-11-10T16:31:22.401Z,99311.45
2018-11-10T16:33:51.459Z,99315.14
2018-11-10T16:36:20.948Z,99309.56
2018-11-10T16:38:53.071Z,99312.05
2018-11-10T16:41:23.014Z,99309.33
2018-11-10T16:43:52.074Z,99316.06
2018-11-10T16:46:20.949Z,99313.37
2018-11-10T16:48:49.508Z,99315.67
2018-11-10T16:51:18.217Z,99310.81
2018-11-10T16:53:46.799Z,99311.67
2018-11-10T16:56:15.443Z,99304.00
2018-11-10T16:58:44.967Z,99314.59
2018-11-10T17:01:13.708Z,99307.72
2018-11-10T17:03:42.331Z,99311.25
2018-11-10T17:06:10.942Z,99299.66
2018-11-10T17:08:40.476Z,99305.23
2018-11-10T17:11:09.001Z,99302.89
2018-11-10T17:13:37.862Z,99306.56
2018-11-10T17:16:06.755Z,99310.83
2018-11-10T17:18:35.541Z,99309.61
2018-11-10T17:21:04.373Z,99312.99
2018-11-10T17:23:33.076Z,99311.00
2018-11-10T17:26:01.730Z,99315.57
2018-11-10T17:28:30.629Z,99313.79
2018-11-10T17:30:59.883Z,99313.67
2018-11-10T17:33:28.639Z,99310.33
2018-11-10T17:35:57.344Z,99309.13
2018-11-10T17:38:28.271Z,99314.71
2018-11-10T17:40:57.245Z,99318.03
2018-11-10T17:43:25.894Z,99312.51
2018-11-10T17:45:54.505Z,99307.09
2018-11-10T17:48:23.166Z,99304.51
2018-11-10T17:50:51.912Z,99306.55
2018-11-10T17:53:20.581Z,99315.22
2018-11-10T17:55:49.236Z,99311.86
2018-11-10T17:58:18.481Z,99310.62
2018-11-10T18:00:47.392Z,99315.98
2018-11-10T18:06:26.516Z,99317.50
2018-11-10T18:08:54.996Z,99323.31
2018-11-10T18:11:23.661Z,99322.04
2018-11-10T18:13:52.388Z,99317.97
2018-11-10T18:16:23.508Z,99328.92
2018-11-10T18:18:52.174Z,99328.53
2018-11-10T18:21:20.661Z,99322.34
2018-11-10T18:23:49.259Z,99330.58
2018-11-10T18:26:17.807Z,99319.10
2018-11-10T18:28:46.512Z,99319.02
2018-11-10T18:31:15.012Z,99320.70
2018-11-10T18:33:43.475Z,99316.05
2018-11-10T18:36:12.020Z,99319.03
2018-11-10T18:38:40.603Z,99316.72
2018-11-10T18:41:09.948Z,99325.42
2018-11-10T18:43:38.476Z,99320.17
2018-11-10T18:46:07.061Z,99331.97
2018-11-10T18:48:35.764Z,99329.95
2018-11-10T18:51:04.348Z,99335.20
2018-11-10T18:53:32.924Z,99332.00
2018-11-10T18:56:01.408Z,99332.86
2018-11-10T18:58:30.008Z,99330.43
2018-11-10T19:00:58.518Z,99339.78
2018-11-10T19:03:27.017Z,99339.59
2018-11-10T19:05:55.707Z,99339.59
2018-11-10T19:08:24.188Z,99337.82
2018-11-10T19:10:53.318Z,99341.91
2018-11-10T19:13:21.892Z,99341.19
2018-11-10T19:15:50.456Z,99341.11
2018-11-10T19:18:19.106Z,99341.70
2018-11-10T19:20:47.670Z,99341.02
2018-11-10T19:23:19.228Z,99345.05
2018-11-10T19:25:47.861Z,99335.77
2018-11-10T19:28:16.517Z,99340.08
2018-11-10T19:30:45.048Z,99346.57
2018-11-10T19:33:14.309Z,99351.73
2018-11-10T19:35:43.005Z,99351.82
2018-11-10T19:38:11.521Z,99351.05
2018-11-10T19:40:40.109Z,99354.97
2018-11-10T19:43:08.896Z,99348.38
2018-11-10T19:45:37.516Z,99359.06
2018-11-10T19:48:06.395Z,99360.66
2018-11-10T19:50:34.944Z,99362.67
2018-11-10T19:53:03.713Z,99360.96
2018-11-10T19:55:32.309Z,99361.91
2018-11-10T19:58:01.099Z,99366.30
2018-11-10T20:00:29.903Z,99360.19
2018-11-10T20:02:58.474Z,99355.05
2018-11-10T20:05:27.078Z,99358.95
2018-11-10T20:07:55.656Z,99360.13
2018-11-10T20:10:24.450Z,99362.71
2018-11-10T20:12:53.523Z,99363.52
2018-11-10T20:15:22.040Z,99360.59
2018-11-10T20:17:50.753Z,99360.50
2018-11-10T20:20:20.048Z,99368.90
2018-11-10T20:22:48.579Z,99372.05
2018-11-10T20:25:18.405Z,99365.94
2018-11-10T20:27:47.624Z,99358.70
2018-11-10T20:30:17.705Z,99366.95
2018-11-10T20:32:46.558Z,99357.92
2018-11-10T20:35:15.424Z,99356.03
2018-11-10T20:37:44.865Z,99362.30
2018-11-10T20:40:14.204Z,99364.97
2018-11-10T20:42:42.900Z,99368.58
2018-11-10T20:45:14.121Z,99363.75
2018-11-10T20:47:43.469Z,99367.86
2018-11-10T20:50:12.664Z,99364.02
2018-11-10T20:52:41.289Z,99363.63
2018-11-10T20:55:11.268Z,99369.39
2018-11-10T20:57:39.962Z,99374.05
2018-11-10T21:00:11.012Z,99376.78
2018-11-10T21:02:40.396Z,99368.52
2018-11-10T21:05:10.168Z,99372.98
2018-11-10T21:07:38.799Z,99376.52
2018-11-10T21:10:09.877Z,99372.59
2018-11-10T21:12:39.220Z,99371.73
2018-11-10T21:15:08.640Z,99366.59
2018-11-10T21:17:37.652Z,99358.10
2018-11-10T21:20:07.166Z,99364.56
2018-11-10T21:22:35.708Z,99360.87
2018-11-10T21:25:13.800Z,99368.67
2018-11-10T21:27:42.516Z,99367.95
2018-11-10T21:30:12.731Z,99362.14
2018-11-10T21:32:41.312Z,99365.61
2018-11-10T21:35:10.123Z,99369.77
2018-11-10T21:37:39.195Z,99368.61
2018-11-10T21:40:16.856Z,99365.34
2018-11-10T21:42:45.468Z,99375.67
2018-11-10T21:45:15.064Z,99373.17
2018-11-10T21:47:43.887Z,99376.74
2018-11-10T21:50:14.768Z,99381.05
2018-11-10T21:52:44.056Z,99372.81
2018-11-10T21:55:14.168Z,99381.09
2018-11-10T21:57:43.482Z,99377.42
2018-11-10T22:00:13.976Z,99385.48
2018-11-10T22:02:43.264Z,99378.59
2018-11-10T22:05:12.196Z,99383.20
2018-11-10T22:07:40.932Z,99386.25
2018-11-10T22:10:11.955Z,99386.33
2018-11-10T22:12:40.908Z,99389.24
2018-11-10T22:15:12.399Z,99381.47
2018-11-10T22:17:41.668Z,99383.15
2018-11-10T22:20:12.064Z,99387.02
2018-11-10T22:22:40.910Z,99393.28
2018-11-10T22:25:11.164Z,99403.88
2018-11-10T22:27:41.088Z,99408.73
2018-11-10T22:30:11.723Z,99417.00
2018-11-10T22:32:41.540Z,99428.38
2018-11-10T22:35:10.668Z,99431.30
2018-11-10T22:37:39.286Z,99430.35
2018-11-10T22:40:11.084Z,99426.91
2018-11-10T22:42:40.252Z,99432.47
2018-11-10T22:45:10.684Z,99431.13
2018-11-10T22:47:40.233Z,99426.12
2018-11-10T22:50:13.668Z,99428.55
2018-11-10T22:52:42.572Z,99425.71
2018-11-10T22:55:11.365Z,99428.85
2018-11-10T22:57:40.280Z,99428.02
2018-11-10T23:00:30.412Z,99426.98
2018-11-10T23:03:00.911Z,99421.42
2018-11-10T23:05:29.508Z,99424.40
2018-11-10T23:07:58.036Z,99408.09
2018-11-10T23:10:26.632Z,99413.40
2018-11-10T23:12:55.328Z,99427.98
2018-11-10T23:15:32.852Z,99430.20
2018-11-10T23:18:01.473Z,99423.78
2018-11-10T23:20:30.207Z,99429.35
2018-11-10T23:22:59.374Z,99442.38
2018-11-10T23:25:27.828Z,99437.19
2018-11-10T23:27:56.428Z,99433.41
2018-11-10T23:30:25.005Z,99431.67
2018-11-10T23:32:53.603Z,99430.66
2018-11-10T23:35:22.132Z,99433.09
2018-11-10T23:37:50.632Z,99441.05
2018-11-10T23:40:19.189Z,99439.45
2018-11-10T23:42:47.704Z,99435.38
2018-11-10T23:45:17.108Z,99437.61
2018-11-10T23:47:45.736Z,99438.31
2018-11-10T23:50:15.632Z,99434.42
2018-11-10T23:52:44.148Z,99435.50
2018-11-10T23:55:13.488Z,99443.73
2018-11-10T23:57:41.961Z,99440.20
